Time;durP1;ratioP1;P1;durP2;ratioP2;P2;SDS_P1;SDS_P2;PMS_P1;PMS_P2;Temp;Humidity;BMP_temperature;BMP_pressure;BME280_temperature;BME280_humidity;BME280_pressure;Samples;Min_cycle;Max_cycle;Signal;HPM_P1;HPM_P2
2022/01/27 00:00:59;;;;;;;12.33;5.27;;;7.80;99.90;;;;;;5021109;28;20181;-55
2022/01/27 00:03:43;;;;;;;14.63;5.17;;;7.80;99.90;;;;;;5030032;28;20178;-55
2022/01/27 00:06:10;;;;;;;13.03;4.90;;;7.80;99.90;;;;;;5034814;28;20203;-55
2022/01/27 00:08:45;;;;;;;14.67;5.47;;;7.80;99.90;;;;;;5030819;28;20237;-54
2022/01/27 00:11:15;;;;;;;19.50;5.83;;;7.80;99.90;;;;;;5029873;28;20191;-55
2022/01/27 00:13:55;;;;;;;14.43;5.83;;;7.90;99.90;;;;;;5017216;28;20269;-54
2022/01/27 00:16:27;;;;;;;16.90;6.33;;;7.70;99.90;;;;;;5009617;28;21437;-55
2022/01/27 00:18:55;;;;;;;13.83;5.27;;;7.70;99.90;;;;;;5027965;28;20715;-55
2022/01/27 00:21:23;;;;;;;14.50;5.67;;;7.70;99.90;;;;;;5023991;28;20184;-54
2022/01/27 00:23:49;;;;;;;16.70;6.10;;;7.70;99.90;;;;;;5030046;28;20174;-55
2022/01/27 00:26:16;;;;;;;15.77;5.80;;;7.80;99.90;;;;;;5014402;28;20198;-55
2022/01/27 00:28:44;;;;;;;12.63;5.67;;;7.70;99.90;;;;;;5026840;28;20197;-55
2022/01/27 00:31:10;;;;;;;14.67;5.00;;;7.90;99.90;;;;;;5021441;28;20201;-54
2022/01/27 00:33:36;;;;;;;16.13;5.57;;;8.00;99.90;;;;;;5023419;28;20199;-55
2022/01/27 00:36:03;;;;;;;15.33;5.40;;;8.00;99.90;;;;;;5029647;28;20180;-55
2022/01/27 00:38:29;;;;;;;20.50;5.63;;;8.10;99.90;;;;;;5023605;28;20217;-55
2022/01/27 00:40:55;;;;;;;14.87;5.87;;;8.20;99.90;;;;;;5025549;28;20181;-55
2022/01/27 00:43:21;;;;;;;11.90;5.77;;;8.20;99.90;;;;;;5007320;28;20179;-54
2022/01/27 00:45:47;;;;;;;14.90;6.00;;;8.50;99.90;;;;;;5027404;28;20178;-55
2022/01/27 00:48:16;;;;;;;18.97;7.07;;;8.20;99.90;;;;;;5029468;28;20202;-55
2022/01/27 00:50:43;;;;;;;18.27;6.97;;;8.20;99.90;;;;;;5026924;28;20424;-55
2022/01/27 00:53:30;;;;;;;22.20;7.03;;;8.20;99.90;;;;;;5026778;28;20185;-56
2022/01/27 00:56:01;;;;;;;25.07;6.83;;;8.20;99.90;;;;;;5025054;28;20231;-56
2022/01/27 00:58:45;;;;;;;18.07;6.63;;;8.20;99.90;;;;;;5022563;28;20209;-55
2022/01/27 01:01:14;;;;;;;16.67;7.07;;;8.20;99.90;;;;;;5027176;28;20174;-56
2022/01/27 01:03:44;;;;;;;14.87;6.83;;;8.20;99.90;;;;;;5029347;28;20182;-55
2022/01/27 01:06:24;;;;;;;13.70;5.93;;;8.20;99.90;;;;;;5023510;28;20171;-55
2022/01/27 01:17:07;;;;;;;17.70;6.70;;;8.10;99.90;;;;;;4928539;28;20651;-55
2022/01/27 01:32:56;;;;;;;14.80;6.40;;;8.30;99.90;;;;;;5022243;28;20613;-54
2022/01/27 01:35:39;;;;;;;18.43;6.93;;;8.30;99.90;;;;;;5026952;28;20181;-55
2022/01/27 01:38:06;;;;;;;15.47;6.47;;;8.30;99.90;;;;;;5029997;28;20263;-54
2022/01/27 01:40:32;;;;;;;17.93;6.10;;;8.20;99.90;;;;;;5028117;28;20174;-54
2022/01/27 01:42:58;;;;;;;19.17;6.60;;;8.20;99.90;;;;;;5028083;28;20178;-55
2022/01/27 01:45:24;;;;;;;15.63;6.37;;;8.20;99.90;;;;;;5032661;28;20225;-55
2022/01/27 01:47:51;;;;;;;20.00;5.50;;;8.10;99.90;;;;;;5026363;28;20182;-56
2022/01/27 01:50:17;;;;;;;17.53;5.80;;;8.20;99.90;;;;;;5030578;28;20270;-56
2022/01/27 01:52:44;;;;;;;14.83;5.90;;;8.10;99.90;;;;;;5014385;28;20626;-55
2022/01/27 01:55:10;;;;;;;16.57;5.47;;;8.10;99.90;;;;;;5028462;28;20196;-55
2022/01/27 01:57:37;;;;;;;20.00;5.77;;;8.20;99.90;;;;;;5032606;28;20198;-55
2022/01/27 02:00:07;;;;;;;19.00;5.40;;;8.20;99.90;;;;;;5025676;28;20624;-56
2022/01/27 02:02:33;;;;;;;19.30;5.33;;;8.30;99.90;;;;;;5030014;28;20178;-56
2022/01/27 02:04:59;;;;;;;18.20;4.50;;;8.30;99.90;;;;;;5015627;28;20239;-55
2022/01/27 02:07:35;;;;;;;16.73;4.60;;;8.30;99.90;;;;;;5029439;28;20181;-55
2022/01/27 02:18:08;;;;;;;13.43;3.93;;;8.70;99.90;;;;;;5032419;28;20240;-55
2022/01/27 02:20:38;;;;;;;14.03;3.53;;;8.80;99.90;;;;;;5025537;28;20181;-55
2022/01/27 02:23:10;;;;;;;17.50;3.60;;;8.80;99.90;;;;;;5029596;28;20188;-55
2022/01/27 02:25:37;;;;;;;15.87;3.93;;;8.90;99.90;;;;;;5029492;28;20210;-54
2022/01/27 02:28:04;;;;;;;15.00;3.57;;;8.80;99.90;;;;;;5027986;28;20259;-54
2022/01/27 02:30:30;;;;;;;17.77;3.83;;;8.90;99.90;;;;;;5032200;28;20174;-55
2022/01/27 02:32:58;;;;;;;19.17;4.07;;;8.90;99.90;;;;;;5031746;28;20244;-55
2022/01/27 02:35:31;;;;;;;11.57;3.17;;;8.90;99.90;;;;;;5032053;28;20170;-55
2022/01/27 02:37:58;;;;;;;16.87;3.57;;;8.90;99.90;;;;;;5032022;28;20288;-54
2022/01/27 02:40:26;;;;;;;19.57;4.13;;;8.90;99.90;;;;;;5032144;28;20189;-54
2022/01/27 02:42:53;;;;;;;12.93;4.13;;;8.90;99.90;;;;;;5030883;28;20178;-54
2022/01/27 02:45:36;;;;;;;11.90;2.90;;;8.90;99.90;;;;;;5031384;28;20174;-54
2022/01/27 02:48:03;;;;;;;11.37;2.47;;;8.90;99.90;;;;;;5031881;28;20174;-55
2022/01/27 02:50:29;;;;;;;17.53;3.40;;;8.90;99.90;;;;;;5031738;28;20185;-55
2022/01/27 02:52:55;;;;;;;20.93;3.67;;;8.90;99.90;;;;;;5031571;28;20644;-55
2022/01/27 02:55:20;;;;;;;14.47;2.87;;;8.90;99.90;;;;;;5031798;28;20180;-54
2022/01/27 02:57:46;;;;;;;14.73;3.93;;;8.90;99.90;;;;;;5031449;28;20263;-55
2022/01/27 03:00:12;;;;;;;26.57;3.47;;;8.90;99.90;;;;;;5023798;28;20594;-53
2022/01/27 03:03:00;;;;;;;18.27;3.83;;;8.80;99.90;;;;;;5014126;28;20190;-54
2022/01/27 03:05:26;;;;;;;16.93;4.13;;;8.80;99.90;;;;;;5031613;28;20193;-55
2022/01/27 03:07:51;;;;;;;12.53;4.23;;;8.80;99.90;;;;;;5031569;28;20177;-54
2022/01/27 03:10:18;;;;;;;16.50;3.43;;;8.90;99.90;;;;;;5031441;28;20177;-54
2022/01/27 03:12:46;;;;;;;17.23;3.70;;;8.90;99.90;;;;;;5013040;28;20512;-55
2022/01/27 03:15:12;;;;;;;17.27;4.20;;;8.90;99.90;;;;;;5031382;28;20669;-54
2022/01/27 03:17:40;;;;;;;12.50;3.53;;;8.90;99.90;;;;;;5023791;28;20688;-54
2022/01/27 03:20:08;;;;;;;16.47;3.83;;;8.90;99.90;;;;;;5031212;28;20659;-55
2022/01/27 03:22:34;;;;;;;18.47;4.07;;;9.10;99.90;;;;;;5031136;28;20192;-54
2022/01/27 03:25:00;;;;;;;14.90;3.50;;;9.00;99.90;;;;;;5030563;28;20188;-54
2022/01/27 03:27:27;;;;;;;18.30;3.37;;;9.00;99.90;;;;;;5030575;28;20182;-54
2022/01/27 03:29:55;;;;;;;9.37;3.33;;;9.00;99.90;;;;;;5030433;28;20260;-54
2022/01/27 03:32:21;;;;;;;22.53;3.97;;;9.00;99.90;;;;;;5029349;28;20260;-55
2022/01/27 03:34:47;;;;;;;26.03;4.33;;;9.00;99.90;;;;;;5029765;28;20214;-54
2022/01/27 03:37:13;;;;;;;15.30;4.07;;;9.00;99.90;;;;;;5011394;28;20202;-54
2022/01/27 03:39:40;;;;;;;18.10;3.70;;;9.00;99.90;;;;;;5023589;28;20244;-54
2022/01/27 03:42:07;;;;;;;17.67;4.20;;;9.10;99.90;;;;;;5015435;28;20261;-54
2022/01/27 03:44:33;;;;;;;18.13;3.20;;;9.00;99.90;;;;;;5028839;28;20192;-55
2022/01/27 03:47:00;;;;;;;25.13;4.97;;;9.00;99.90;;;;;;5030490;28;20276;-55
2022/01/27 03:49:26;;;;;;;19.77;4.13;;;9.00;99.90;;;;;;5012644;28;20186;-54
2022/01/27 03:51:52;;;;;;;19.97;4.00;;;9.00;99.90;;;;;;5030326;28;20186;-54
2022/01/27 03:54:18;;;;;;;34.23;4.50;;;9.00;99.90;;;;;;5029727;28;20185;-54
2022/01/27 03:56:44;;;;;;;21.90;4.03;;;9.00;99.90;;;;;;5030553;28;20212;-54
2022/01/27 03:59:10;;;;;;;20.10;4.03;;;9.00;99.90;;;;;;5027585;28;20214;-54
2022/01/27 04:01:37;;;;;;;22.07;5.03;;;9.00;99.90;;;;;;5030100;28;20720;-54
2022/01/27 04:04:03;;;;;;;17.93;3.53;;;9.00;99.90;;;;;;5029841;28;20208;-55
2022/01/27 04:06:36;;;;;;;23.50;4.43;;;9.00;99.90;;;;;;5012522;28;20185;-55
2022/01/27 04:09:04;;;;;;;17.70;4.40;;;9.00;99.90;;;;;;5012828;28;20182;-55
2022/01/27 04:11:30;;;;;;;17.00;4.40;;;9.00;99.90;;;;;;5030455;28;20201;-55
2022/01/27 04:13:56;;;;;;;15.30;3.83;;;9.00;99.90;;;;;;5029795;28;20208;-54
2022/01/27 04:16:23;;;;;;;17.53;3.47;;;9.00;99.90;;;;;;5030424;28;20200;-55
2022/01/27 04:18:49;;;;;;;22.07;4.80;;;9.00;99.90;;;;;;5030181;28;20552;-55
2022/01/27 04:21:15;;;;;;;19.23;4.50;;;9.00;99.90;;;;;;5029973;28;20188;-55
2022/01/27 04:23:42;;;;;;;19.20;4.90;;;8.90;99.90;;;;;;5029865;28;20205;-54
2022/01/27 04:26:11;;;;;;;21.23;3.70;;;9.00;99.90;;;;;;5030359;28;20212;-54
2022/01/27 04:28:38;;;;;;;18.97;3.60;;;9.00;99.90;;;;;;5030348;28;20174;-54
2022/01/27 04:31:07;;;;;;;22.93;4.10;;;8.90;99.90;;;;;;5012260;28;20497;-54
2022/01/27 04:33:34;;;;;;;22.07;4.07;;;8.90;99.90;;;;;;5005909;28;20178;-54
2022/01/27 04:36:05;;;;;;;22.63;3.97;;;8.90;99.90;;;;;;5030024;28;20182;-54
2022/01/27 04:38:41;;;;;;;14.53;3.57;;;8.90;99.90;;;;;;5010462;28;20365;-54
2022/01/27 04:44:05;;;;;;;20.03;3.97;;;8.90;99.90;;;;;;5032301;28;20702;-56
2022/01/27 04:46:38;;;;;;;26.13;3.47;;;8.90;99.90;;;;;;5033354;28;20177;-56
2022/01/27 04:49:06;;;;;;;24.80;4.10;;;8.90;99.90;;;;;;5033691;28;20188;-56
2022/01/27 04:51:32;;;;;;;24.10;3.83;;;8.90;99.90;;;;;;5033823;28;20265;-56
2022/01/27 04:54:05;;;;;;;29.47;3.90;;;8.90;99.90;;;;;;5033768;28;20228;-55
2022/01/27 04:56:34;;;;;;;14.57;3.53;;;;;;;;;;5034139;28;20277;-55
2022/01/27 04:59:04;;;;;;;20.67;4.00;;;8.90;99.90;;;;;;5033618;28;20221;-54
2022/01/27 05:01:36;;;;;;;19.30;3.93;;;8.90;99.90;;;;;;5019328;28;20178;-54
2022/01/27 05:04:15;;;;;;;22.87;4.23;;;8.90;99.90;;;;;;5033565;28;20209;-54
2022/01/27 05:06:41;;;;;;;17.87;3.70;;;8.90;99.90;;;;;;5015978;28;20174;-55
2022/01/27 05:09:06;;;;;;;20.37;4.43;;;8.90;99.90;;;;;;5033575;28;20636;-55
2022/01/27 05:11:47;;;;;;;25.37;4.20;;;8.90;99.90;;;;;;5033706;28;20648;-55
2022/01/27 05:14:20;;;;;;;29.83;4.83;;;8.90;99.90;;;;;;5031958;28;20297;-54
2022/01/27 05:16:46;;;;;;;26.00;4.13;;;8.90;99.90;;;;;;5030840;28;20174;-53
2022/01/27 05:19:11;;;;;;;21.60;4.13;;;8.90;99.90;;;;;;5033287;28;20680;-54
2022/01/27 05:21:37;;;;;;;22.83;4.10;;;8.90;99.90;;;;;;5033433;28;20591;-54
2022/01/27 05:24:04;;;;;;;24.40;3.97;;;8.90;99.90;;;;;;5033248;28;20182;-54
2022/01/27 05:26:32;;;;;;;20.60;3.97;;;8.90;99.90;;;;;;5014646;28;20193;-54
2022/01/27 05:28:58;;;;;;;25.37;4.43;;;;;;;;;;5020236;28;20182;-54
2022/01/27 05:31:24;;;;;;;23.17;4.07;;;8.90;99.90;;;;;;5024263;28;20182;-54
2022/01/27 05:33:49;;;;;;;30.27;4.33;;;9.00;99.90;;;;;;5032599;28;20265;-54
2022/01/27 05:36:15;;;;;;;18.43;3.23;;;9.00;99.90;;;;;;5033101;28;20644;-54
2022/01/27 05:38:41;;;;;;;19.60;3.63;;;9.00;99.90;;;;;;5032525;28;20222;-55
2022/01/27 05:41:06;;;;;;;22.10;4.07;;;9.00;99.90;;;;;;5033155;28;20178;-54
2022/01/27 05:43:33;;;;;;;18.23;3.90;;;9.00;99.90;;;;;;5032416;28;20185;-54
2022/01/27 05:45:59;;;;;;;26.63;4.10;;;9.00;99.90;;;;;;5032765;28;20170;-54
2022/01/27 05:48:25;;;;;;;26.30;3.97;;;9.10;99.90;;;;;;5014792;28;20181;-54
2022/01/27 05:50:51;;;;;;;16.37;3.53;;;9.10;99.90;;;;;;5033066;28;20589;-54
2022/01/27 05:53:17;;;;;;;35.00;4.57;;;9.10;99.90;;;;;;5032203;28;20265;-54
2022/01/27 05:55:42;;;;;;;17.80;3.90;;;9.00;99.90;;;;;;5014010;28;20181;-54
2022/01/27 05:58:08;;;;;;;18.67;3.57;;;9.10;99.90;;;;;;5032858;28;20202;-54
2022/01/27 06:00:34;;;;;;;25.70;3.67;;;;;;;;;;5023854;28;20316;-54
2022/01/27 06:03:00;;;;;;;16.10;3.30;;;9.10;99.90;;;;;;5014757;28;20189;-56
2022/01/27 06:05:26;;;;;;;16.83;2.80;;;9.30;99.90;;;;;;5032486;28;20208;-56
2022/01/27 06:07:52;;;;;;;18.30;3.63;;;9.10;99.90;;;;;;5032615;28;20178;-55
2022/01/27 06:10:19;;;;;;;26.77;3.70;;;9.00;99.90;;;;;;5032289;28;20203;-56
2022/01/27 06:12:54;;;;;;;22.93;3.93;;;9.20;99.90;;;;;;5032636;28;20292;-55
2022/01/27 06:15:20;;;;;;;20.23;3.73;;;9.20;99.90;;;;;;5030055;28;20248;-55
2022/01/27 06:17:46;;;;;;;17.67;3.37;;;9.20;99.90;;;;;;5032000;28;20772;-55
2022/01/27 06:20:13;;;;;;;31.13;3.80;;;9.20;99.90;;;;;;5032498;28;20209;-54
2022/01/27 06:22:39;;;;;;;21.40;4.13;;;9.20;99.90;;;;;;5032412;28;20196;-55
2022/01/27 06:25:05;;;;;;;19.67;3.63;;;9.20;99.90;;;;;;5031816;28;20174;-55
2022/01/27 06:27:31;;;;;;;23.37;3.73;;;9.20;99.90;;;;;;5032265;28;20204;-54
2022/01/27 06:29:57;;;;;;;16.80;3.70;;;9.20;99.90;;;;;;5031844;28;20169;-54
2022/01/27 06:32:23;;;;;;;20.60;3.60;;;9.20;99.90;;;;;;5031835;28;20209;-55
2022/01/27 06:34:48;;;;;;;15.03;3.53;;;9.20;99.90;;;;;;5031751;28;20189;-56
2022/01/27 06:37:14;;;;;;;15.33;3.00;;;9.20;99.90;;;;;;5013410;28;20206;-54
2022/01/27 06:39:40;;;;;;;17.73;3.10;;;9.20;99.90;;;;;;5029209;28;20181;-54
2022/01/27 06:42:07;;;;;;;19.90;3.67;;;9.20;99.90;;;;;;5013583;28;20876;-55
2022/01/27 06:44:34;;;;;;;20.20;3.20;;;9.20;99.90;;;;;;5031669;28;20184;-54
2022/01/27 06:47:00;;;;;;;16.23;2.60;;;9.30;99.90;;;;;;5031888;28;20512;-54
2022/01/27 06:49:26;;;;;;;16.03;3.20;;;9.30;99.90;;;;;;5031484;28;20174;-55
2022/01/27 06:51:52;;;;;;;17.90;3.07;;;9.40;99.90;;;;;;5031452;28;20599;-55
2022/01/27 06:54:18;;;;;;;13.13;3.20;;;9.30;99.90;;;;;;5030587;28;20185;-55
2022/01/27 06:56:45;;;;;;;15.07;3.77;;;9.40;99.90;;;;;;5031822;28;20232;-55
2022/01/27 06:59:11;;;;;;;18.83;3.20;;;9.30;99.90;;;;;;5031340;28;20300;-55
2022/01/27 07:01:39;;;;;;;15.87;2.63;;;9.20;99.90;;;;;;5031582;28;20201;-55
2022/01/27 07:04:07;;;;;;;13.03;3.37;;;9.40;99.90;;;;;;5024616;28;20181;-55
2022/01/27 07:06:34;;;;;;;15.97;2.40;;;9.40;99.90;;;;;;5030542;28;20728;-55
2022/01/27 07:09:00;;;;;;;15.93;2.87;;;9.50;99.90;;;;;;5031389;28;20181;-55
2022/01/27 07:11:26;;;;;;;21.27;2.10;;;9.50;99.90;;;;;;5031634;28;20532;-55
2022/01/27 07:13:52;;;;;;;17.10;2.93;;;9.50;99.90;;;;;;5030607;28;20649;-54
2022/01/27 07:16:17;;;;;;;17.50;3.07;;;9.50;99.90;;;;;;5031092;28;20307;-55
2022/01/27 07:18:43;;;;;;;13.73;3.07;;;9.50;99.90;;;;;;5031086;28;20267;-55
2022/01/27 07:21:09;;;;;;;14.73;2.60;;;9.60;99.90;;;;;;5029911;28;20201;-56
2022/01/27 07:23:35;;;;;;;15.40;2.10;;;9.60;99.90;;;;;;5030878;28;20181;-55
2022/01/27 07:26:01;;;;;;;11.43;2.20;;;9.60;99.90;;;;;;5030844;28;20193;-56
2022/01/27 07:28:27;;;;;;;7.53;1.27;;;9.60;99.90;;;;;;5031315;28;20606;-56
2022/01/27 07:30:52;;;;;;;15.50;1.97;;;9.60;99.90;;;;;;5031236;28;20178;-55
2022/01/27 07:33:18;;;;;;;8.83;1.57;;;9.60;99.90;;;;;;5030766;28;20186;-56
2022/01/27 07:35:44;;;;;;;6.93;1.57;;;9.70;99.90;;;;;;5030488;28;20185;-56
2022/01/27 07:38:10;;;;;;;8.10;1.73;;;9.70;99.90;;;;;;5026806;28;20607;-56
2022/01/27 07:40:36;;;;;;;8.87;1.87;;;9.70;99.90;;;;;;5030519;28;20178;-56
2022/01/27 07:43:02;;;;;;;9.53;1.57;;;9.60;99.90;;;;;;5012792;28;20600;-56
2022/01/27 07:45:27;;;;;;;10.50;1.93;;;9.70;99.90;;;;;;5030493;28;20201;-56
2022/01/27 07:47:53;;;;;;;11.80;2.00;;;9.70;99.90;;;;;;5029883;28;20170;-56
2022/01/27 07:50:21;;;;;;;10.60;1.57;;;9.80;99.90;;;;;;5030488;28;20582;-56
2022/01/27 07:52:47;;;;;;;4.93;1.47;;;9.80;99.90;;;;;;5029794;28;20181;-56
2022/01/27 07:55:13;;;;;;;9.93;1.70;;;9.80;99.90;;;;;;5030659;28;20174;-56
2022/01/27 07:57:39;;;;;;;7.17;1.07;;;9.80;99.90;;;;;;5030629;28;20193;-56
2022/01/27 08:00:07;;;;;;;5.20;1.40;;;9.80;99.90;;;;;;5030508;28;20190;-55
2022/01/27 08:02:33;;;;;;;13.80;1.93;;;9.90;99.90;;;;;;5030132;28;20197;-56
2022/01/27 08:04:59;;;;;;;7.40;1.50;;;9.80;99.90;;;;;;5030540;28;20728;-56
2022/01/27 08:07:24;;;;;;;8.37;1.70;;;9.90;99.90;;;;;;5028936;28;20217;-56
2022/01/27 08:09:50;;;;;;;6.43;1.13;;;9.90;99.90;;;;;;5030266;28;20186;-56
2022/01/27 08:12:17;;;;;;;8.53;1.20;;;9.90;99.90;;;;;;5030157;28;20174;-56
2022/01/27 08:14:43;;;;;;;5.30;1.33;;;9.90;99.90;;;;;;5030150;28;20260;-56
2022/01/27 08:17:09;;;;;;;8.60;1.70;;;9.90;99.90;;;;;;5028607;28;20236;-56
2022/01/27 08:19:34;;;;;;;7.30;1.57;;;10.00;99.90;;;;;;5030086;28;20213;-55
2022/01/27 08:22:00;;;;;;;11.03;1.20;;;9.90;99.90;;;;;;5030230;28;20190;-55
2022/01/27 08:24:26;;;;;;;3.60;1.07;;;10.00;99.90;;;;;;5030009;28;20185;-55
2022/01/27 08:26:58;;;;;;;5.30;1.23;;;10.00;99.90;;;;;;5030008;28;20170;-55
2022/01/27 08:29:31;;;;;;;6.67;1.23;;;10.00;99.90;;;;;;5018318;28;20640;-55
2022/01/27 08:32:01;;;;;;;6.03;1.20;;;10.00;99.90;;;;;;5030362;28;20170;-55
2022/01/27 08:34:31;;;;;;;11.30;1.57;;;10.00;99.90;;;;;;5029895;28;20178;-54
2022/01/27 08:37:03;;;;;;;8.67;0.70;;;10.00;99.90;;;;;;5029654;28;20174;-55
2022/01/27 08:39:29;;;;;;;4.47;0.73;;;10.00;99.90;;;;;;5011846;28;20210;-54
2022/01/27 08:41:55;;;;;;;8.93;1.23;;;10.10;99.90;;;;;;5010357;28;20175;-55
2022/01/27 08:44:21;;;;;;;6.73;0.77;;;10.10;99.90;;;;;;5026671;28;20178;-56
2022/01/27 08:46:47;;;;;;;4.13;0.80;;;10.10;99.90;;;;;;5024674;28;20181;-55
2022/01/27 08:49:13;;;;;;;5.53;1.00;;;10.10;99.90;;;;;;5029514;28;20705;-55
2022/01/27 08:51:38;;;;;;;4.63;0.70;;;10.10;99.90;;;;;;5010527;28;20182;-59
2022/01/27 08:54:04;;;;;;;6.70;1.00;;;10.10;99.90;;;;;;5029653;28;20205;-57
2022/01/27 08:56:30;;;;;;;4.63;0.57;;;10.10;99.90;;;;;;5029612;28;20170;-57
2022/01/27 08:58:57;;;;;;;7.60;1.17;;;9.90;99.90;;;;;;5029525;28;20201;-57
2022/01/27 09:01:24;;;;;;;7.27;1.13;;;10.10;99.90;;;;;;5029984;28;20170;-57
2022/01/27 09:03:51;;;;;;;6.00;1.20;;;9.90;99.90;;;;;;5028824;28;20186;-56
2022/01/27 09:06:19;;;;;;;1.60;0.90;;;10.00;99.90;;;;;;5029417;28;20252;-55
2022/01/27 09:08:45;;;;;;;4.43;0.93;;;10.10;99.90;;;;;;5023508;28;20186;-56
2022/01/27 09:11:12;;;;;;;6.17;1.00;;;10.10;99.90;;;;;;5008981;28;20181;-56
2022/01/27 09:13:38;;;;;;;2.73;0.97;;;10.10;99.90;;;;;;5014589;28;20189;-55
2022/01/27 09:16:05;;;;;;;3.40;0.83;;;10.20;99.90;;;;;;5015294;28;20218;-57
2022/01/27 09:18:32;;;;;;;3.53;0.80;;;10.10;99.90;;;;;;5026832;28;20227;-55
2022/01/27 09:21:01;;;;;;;3.13;0.87;;;10.10;99.90;;;;;;5022706;28;20269;-55
2022/01/27 09:23:27;;;;;;;7.83;0.90;;;9.90;99.90;;;;;;5028341;28;20192;-56
2022/01/27 09:25:56;;;;;;;7.87;0.90;;;10.10;99.90;;;;;;5027839;28;20265;-56
2022/01/27 09:28:22;;;;;;;2.07;0.77;;;10.10;99.90;;;;;;5012082;28;20169;-55
2022/01/27 09:30:48;;;;;;;5.80;0.90;;;10.10;99.90;;;;;;5028998;28;20782;-56
2022/01/27 09:33:14;;;;;;;9.47;1.03;;;10.20;99.90;;;;;;5008179;28;20228;-55
2022/01/27 09:35:40;;;;;;;4.17;1.20;;;10.10;99.90;;;;;;5032229;28;20182;-56
2022/01/27 09:38:06;;;;;;;6.70;1.30;;;10.10;99.90;;;;;;5032760;28;20272;-55
2022/01/27 09:40:34;;;;;;;6.43;1.47;;;10.20;99.90;;;;;;5032524;28;20596;-56
2022/01/27 09:43:02;;;;;;;7.87;2.00;;;10.20;99.90;;;;;;5032933;28;20265;-55
2022/01/27 09:45:29;;;;;;;6.50;1.30;;;10.20;99.90;;;;;;5032463;28;20231;-55
2022/01/27 09:47:59;;;;;;;3.37;1.60;;;10.20;99.90;;;;;;5032190;28;20288;-55
2022/01/27 09:53:14;;;;;;;4.53;1.87;;;10.30;99.90;;;;;;5028732;28;20232;-55
2022/01/27 09:55:39;;;;;;;5.20;1.37;;;10.30;99.90;;;;;;5009392;28;20182;-55
2022/01/27 09:58:07;;;;;;;11.03;1.60;;;10.30;99.90;;;;;;5025832;28;20211;-54
2022/01/27 10:00:33;;;;;;;15.27;1.97;;;10.40;99.90;;;;;;5031407;28;20245;-55
2022/01/27 10:03:13;;;;;;;4.70;1.50;;;10.40;99.90;;;;;;5031877;28;20265;-55
2022/01/27 10:05:40;;;;;;;5.97;1.53;;;10.50;99.90;;;;;;5032215;28;20177;-56
2022/01/27 10:08:17;;;;;;;7.63;1.70;;;10.50;99.90;;;;;;5031327;28;20564;-55
2022/01/27 10:10:45;;;;;;;4.43;1.27;;;10.60;99.90;;;;;;5032746;28;20169;-55
2022/01/27 10:13:46;;;;;;;7.13;1.90;;;10.70;99.90;;;;;;5032669;28;20166;-56
2022/01/27 10:16:41;;;;;;;8.93;1.73;;;10.70;99.90;;;;;;5032090;28;20257;-56
2022/01/27 10:19:08;;;;;;;8.97;2.20;;;10.90;99.90;;;;;;5029325;28;20210;-56
2022/01/27 10:21:35;;;;;;;8.13;2.17;;;10.90;99.90;;;;;;5023138;28;20217;-56
2022/01/27 10:24:26;;;;;;;7.73;1.87;;;10.90;99.90;;;;;;5030730;28;20181;-56
2022/01/27 10:27:24;;;;;;;7.63;2.30;;;11.10;99.90;;;;;;5009506;28;20174;-56
2022/01/27 10:32:39;;;;;;;9.70;3.33;;;11.10;99.90;;;;;;5028859;28;20170;-57
2022/01/27 10:35:06;;;;;;;8.93;3.20;;;11.10;99.90;;;;;;5032186;28;20206;-55
2022/01/27 10:37:50;;;;;;;14.80;3.57;;;11.10;99.90;;;;;;5031820;28;20196;-56
2022/01/27 10:40:34;;;;;;;9.50;3.47;;;11.20;99.90;;;;;;5012321;28;20201;-56
2022/01/27 10:43:20;;;;;;;7.30;3.80;;;11.30;99.90;;;;;;5012509;28;20696;-56
2022/01/27 10:46:23;;;;;;;8.47;3.70;;;11.30;99.90;;;;;;5022493;28;20232;-56
2022/01/27 10:49:03;;;;;;;13.47;4.20;;;11.30;99.90;;;;;;5014234;28;20225;-56
2022/01/27 10:51:38;;;;;;;10.57;4.33;;;11.30;99.90;;;;;;5031636;28;20173;-56
2022/01/27 10:54:05;;;;;;;14.70;4.57;;;11.30;99.90;;;;;;5031655;28;20173;-56
2022/01/27 10:56:37;;;;;;;8.93;4.80;;;11.40;99.90;;;;;;5013936;28;20192;-56
2022/01/27 10:59:25;;;;;;;9.67;5.07;;;11.40;99.90;;;;;;5031941;28;20288;-56
2022/01/27 11:01:51;;;;;;;10.23;5.17;;;11.50;99.90;;;;;;5030695;28;20192;-56
2022/01/27 11:04:19;;;;;;;7.97;4.50;;;11.60;99.90;;;;;;5031747;28;20738;-56
2022/01/27 11:06:59;;;;;;;11.17;4.57;;;11.60;99.90;;;;;;5013575;28;20182;-56
2022/01/27 11:09:27;;;;;;;9.07;4.00;;;11.60;99.90;;;;;;5031653;28;20173;-56
2022/01/27 11:11:56;;;;;;;12.13;5.33;;;11.60;99.90;;;;;;5031338;28;20251;-56
2022/01/27 11:14:25;;;;;;;9.83;5.60;;;11.50;99.90;;;;;;5031064;28;20225;-56
2022/01/27 11:16:56;;;;;;;12.10;5.23;;;11.50;99.90;;;;;;5013263;28;20235;-56
2022/01/27 11:22:04;;;;;;;11.83;5.30;;;11.50;99.90;;;;;;5031282;28;20166;-56
2022/01/27 11:27:38;;;;;;;15.40;6.20;;;11.50;99.90;;;;;;5030410;28;20178;-57
2022/01/27 11:30:16;;;;;;;13.10;7.00;;;11.60;99.90;;;;;;5031054;28;20182;-57
2022/01/27 11:33:08;;;;;;;16.80;6.57;;;11.60;99.90;;;;;;5013270;28;20178;-57
2022/01/27 11:35:34;;;;;;;12.30;5.40;;;11.70;99.90;;;;;;5030754;28;20181;-58
2022/01/27 11:38:03;;;;;;;12.67;5.90;;;11.70;99.90;;;;;;5030552;28;20210;-57
2022/01/27 11:40:46;;;;;;;9.70;4.70;;;11.70;99.90;;;;;;5030889;28;20178;-56
2022/01/27 11:43:17;;;;;;;12.83;5.33;;;11.60;99.90;;;;;;5030774;28;20240;-55
2022/01/27 11:45:53;;;;;;;14.33;5.30;;;11.60;99.90;;;;;;5023054;28;20196;-56
2022/01/27 11:48:26;;;;;;;14.67;5.80;;;11.60;99.90;;;;;;5014223;28;20170;-56
2022/01/27 11:51:13;;;;;;;13.53;5.00;;;11.60;99.90;;;;;;5011141;28;20186;-56
2022/01/27 11:53:49;;;;;;;14.27;6.00;;;11.60;99.90;;;;;;4992323;28;20175;-56
2022/01/27 11:56:26;;;;;;;15.00;5.30;;;11.60;99.90;;;;;;5012481;28;20181;-56
2022/01/27 11:58:56;;;;;;;15.03;5.93;;;11.60;99.90;;;;;;5012028;28;20221;-56
2022/01/27 12:01:26;;;;;;;14.50;5.10;;;11.60;99.90;;;;;;5019417;28;20253;-56
2022/01/27 12:04:11;;;;;;;18.23;6.27;;;11.50;99.90;;;;;;5010776;28;20229;-56
2022/01/27 12:06:47;;;;;;;12.03;6.40;;;11.40;99.90;;;;;;5010769;28;20178;-56
2022/01/27 12:09:18;;;;;;;18.90;6.07;;;11.50;99.90;;;;;;5025314;28;20181;-56
2022/01/27 12:12:48;;;;;;;18.57;7.17;;;11.50;99.90;;;;;;5012458;28;20190;-56
2022/01/27 12:15:14;;;;;;;16.57;6.53;;;11.50;99.90;;;;;;4993357;28;20231;-56
2022/01/27 12:17:41;;;;;;;15.80;7.20;;;11.60;99.90;;;;;;4990723;28;20539;-56
2022/01/27 12:20:08;;;;;;;16.73;7.67;;;12.60;99.90;;;;;;4990989;28;20210;-56
2022/01/27 12:22:46;;;;;;;15.23;7.50;;;12.80;99.90;;;;;;4991105;28;20228;-56
2022/01/27 12:25:15;;;;;;;18.80;6.70;;;13.10;99.90;;;;;;4990956;28;20179;-57
2022/01/27 12:27:55;;;;;;;13.07;6.20;;;13.60;99.90;;;;;;4990806;28;20181;-57
2022/01/27 12:30:23;;;;;;;13.48;6.13;;;14.00;99.90;;;;;;4975542;28;20206;-57
2022/01/27 12:32:54;;;;;;;10.90;5.32;;;14.40;99.90;;;;;;4971627;28;20607;-57
2022/01/27 12:35:20;;;;;;;12.13;5.93;;;15.00;99.90;;;;;;4986222;28;20192;-57
2022/01/27 12:37:47;;;;;;;12.27;6.20;;;15.10;99.90;;;;;;4988209;28;20206;-57
2022/01/27 12:40:20;;;;;;;10.93;5.30;;;15.20;99.90;;;;;;4988670;28;20207;-57
2022/01/27 12:42:58;;;;;;;9.90;5.55;;;14.70;99.90;;;;;;4990098;28;20242;-57
2022/01/27 12:45:28;;;;;;;13.27;6.85;;;15.40;99.90;;;;;;4984011;28;20176;-57
2022/01/27 12:47:54;;;;;;;12.40;6.22;;;13.90;99.90;;;;;;4976151;28;20181;-58
2022/01/27 12:50:23;;;;;;;12.15;6.43;;;13.70;99.90;;;;;;4989313;28;20168;-58
2022/01/27 12:52:59;;;;;;;17.83;6.55;;;13.60;99.90;;;;;;4988333;28;20256;-58
2022/01/27 12:55:31;;;;;;;15.27;6.90;;;13.40;99.90;;;;;;4990267;28;20341;-58
2022/01/27 12:58:04;;;;;;;12.57;6.95;;;13.20;99.90;;;;;;4990565;28;20203;-58
2022/01/27 13:00:45;;;;;;;19.13;7.55;;;13.30;99.90;;;;;;4979091;28;20670;-58
2022/01/27 13:03:11;;;;;;;14.85;7.63;;;13.50;99.90;;;;;;4990626;28;20171;-58
2022/01/27 13:05:49;;;;;;;17.23;7.32;;;13.50;99.90;;;;;;4979860;28;20201;-57
2022/01/27 13:08:21;;;;;;;11.27;6.32;;;14.00;99.90;;;;;;4975097;28;20303;-58
2022/01/27 13:10:49;;;;;;;11.00;5.55;;;17.20;99.90;;;;;;4985437;28;20171;-58
2022/01/27 13:13:23;;;;;;;10.48;4.53;;;18.50;99.90;;;;;;4988591;28;20188;-58
2022/01/27 13:16:16;;;;;;;8.57;5.00;;;17.60;99.90;;;;;;5017491;28;20284;-59
2022/01/27 13:18:59;;;;;;;11.70;5.68;;;17.70;99.90;;;;;;5012781;28;20324;-59
2022/01/27 13:21:30;;;;;;;8.00;3.67;;;20.20;99.90;;;;;;5029733;28;20652;-59
2022/01/27 13:24:07;;;;;;;6.63;3.60;;;21.50;99.90;;;;;;5020959;28;20183;-59
2022/01/27 13:26:34;;;;;;;7.07;3.45;;;22.50;99.90;;;;;;5033491;28;20189;-59
2022/01/27 13:29:00;;;;;;;5.57;3.40;;;;;;;;;;5033888;28;20201;-59
2022/01/27 13:31:27;;;;;;;7.97;3.92;;;23.50;99.90;;;;;;5032549;28;20276;-59
2022/01/27 13:33:53;;;;;;;4.88;2.80;;;22.20;99.90;;;;;;5032913;28;20178;-59
2022/01/27 13:36:21;;;;;;;5.85;3.50;;;21.80;99.90;;;;;;5029633;28;20170;-60
2022/01/27 13:41:31;;;;;;;5.25;2.38;;;22.50;99.90;;;;;;5032698;28;20544;-60
2022/01/27 13:44:08;;;;;;;3.60;1.52;;;22.60;99.90;;;;;;5033058;28;20170;-59
2022/01/27 13:46:51;;;;;;;6.15;1.80;;;22.10;99.90;;;;;;5032526;28;20178;-59